createdAt,value
2019-05-23T00:01:22.943Z,5.70
2019-05-23T00:04:20.900Z,5.70
2019-05-23T00:07:16.339Z,5.47
2019-05-23T00:10:08.586Z,6.17
2019-05-23T00:12:58.572Z,5.40
2019-05-23T00:15:42.552Z,5.77
2019-05-23T00:18:14.483Z,5.25
2019-05-23T00:20:47.281Z,5.27
2019-05-23T00:23:20.243Z,5.10
2019-05-23T00:25:53.016Z,5.53
2019-05-23T00:28:25.200Z,5.70
2019-05-23T00:31:01.440Z,5.10
2019-05-23T00:33:35.381Z,5.67
2019-05-23T00:36:07.213Z,5.67
2019-05-23T00:38:40.495Z,5.70
2019-05-23T00:41:14.021Z,5.70
2019-05-23T00:43:47.401Z,5.80
2019-05-23T00:46:19.969Z,5.40
2019-05-23T00:48:53.293Z,5.60
2019-05-23T00:51:27.133Z,5.97
2019-05-23T00:53:59.839Z,5.47
2019-05-23T00:56:31.693Z,5.40
2019-05-23T00:59:04.365Z,5.53
2019-05-23T01:01:37.937Z,5.83
2019-05-23T01:04:12.148Z,5.30
2019-05-23T01:06:44.525Z,5.87
2019-05-23T01:09:18.853Z,5.00
2019-05-23T01:11:52.597Z,5.57
2019-05-23T01:14:25.437Z,5.97
2019-05-23T01:16:59.285Z,5.63
2019-05-23T01:19:32.736Z,5.53
2019-05-23T01:22:08.281Z,5.73
2019-05-23T01:24:43.513Z,5.13
2019-05-23T01:27:15.843Z,5.23
2019-05-23T01:29:50.516Z,5.80
2019-05-23T01:32:31.595Z,5.57
2019-05-23T01:35:05.174Z,5.67
2019-05-23T01:37:36.943Z,6.00
2019-05-23T01:40:08.986Z,5.57
2019-05-23T01:42:42.595Z,6.00
2019-05-23T01:45:18.083Z,6.27
2019-05-23T01:47:50.476Z,7.10
2019-05-23T01:50:26.823Z,5.73
2019-05-23T01:52:59.249Z,5.75
2019-05-23T01:55:31.766Z,6.00
2019-05-23T01:58:04.207Z,6.00
2019-05-23T02:00:36.511Z,6.73
2019-05-23T02:03:10.047Z,6.43
2019-05-23T02:05:44.412Z,6.10
2019-05-23T02:08:17.615Z,6.37
2019-05-23T02:10:49.827Z,6.07
2019-05-23T02:13:21.789Z,7.10
2019-05-23T02:15:53.713Z,6.90
2019-05-23T02:18:28.426Z,6.70
2019-05-23T02:21:01.155Z,6.60
2019-05-23T02:23:34.441Z,6.83
2019-05-23T02:26:07.291Z,6.90
2019-05-23T02:28:40.082Z,7.17
2019-05-23T02:31:12.581Z,7.20
2019-05-23T02:33:45.311Z,7.10
2019-05-23T02:36:17.938Z,7.00
2019-05-23T02:39:16.161Z,6.77
2019-05-23T02:41:59.341Z,7.03
2019-05-23T02:44:33.323Z,7.53
2019-05-23T02:47:17.244Z,7.77
2019-05-23T02:49:51.985Z,7.10
2019-05-23T02:52:50.946Z,7.20
2019-05-23T02:55:32.089Z,7.25
2019-05-23T02:58:22.762Z,7.58
2019-05-23T03:01:17.667Z,6.87
2019-05-23T03:03:51.697Z,6.78
2019-05-23T03:06:25.153Z,6.70
2019-05-23T03:08:59.333Z,6.90
2019-05-23T03:11:47.379Z,6.77
2019-05-23T03:14:20.385Z,6.97
2019-05-23T03:16:56.383Z,6.83
2019-05-23T03:19:42.919Z,6.65
2019-05-23T03:22:42.960Z,7.40
2019-05-23T03:26:04.222Z,6.67
2019-05-23T03:28:42.661Z,6.75
2019-05-23T03:31:33.320Z,7.10
2019-05-23T03:34:07.706Z,7.53
2019-05-23T03:36:41.101Z,6.78
2019-05-23T03:39:15.139Z,7.05
2019-05-23T03:41:48.421Z,7.50
2019-05-23T03:44:20.543Z,6.72
2019-05-23T03:46:53.861Z,7.58
2019-05-23T03:49:27.999Z,7.40
2019-05-23T03:52:01.904Z,7.15
2019-05-23T03:54:35.641Z,7.33
2019-05-23T03:57:09.262Z,7.78
2019-05-23T03:59:42.495Z,7.80
2019-05-23T04:02:17.005Z,8.23
2019-05-23T04:04:49.060Z,7.55
2019-05-23T04:07:21.862Z,7.77
2019-05-23T04:09:53.991Z,8.40
2019-05-23T04:12:26.094Z,8.25
2019-05-23T04:14:57.831Z,8.85
2019-05-23T04:17:30.338Z,8.30
2019-05-23T04:20:02.666Z,8.03
2019-05-23T04:22:34.823Z,8.13
2019-05-23T04:25:07.718Z,7.90
2019-05-23T04:27:39.511Z,8.20
2019-05-23T04:30:12.874Z,8.00
2019-05-23T04:32:45.118Z,8.03
2019-05-23T04:35:17.235Z,8.87
2019-05-23T04:37:49.407Z,8.25
2019-05-23T04:40:22.060Z,8.35
2019-05-23T04:42:54.067Z,9.23
2019-05-23T04:45:28.067Z,8.58
2019-05-23T04:48:00.763Z,8.53
2019-05-23T04:50:33.002Z,8.65
2019-05-23T04:53:07.149Z,8.13
2019-05-23T04:55:39.819Z,8.90
2019-05-23T04:58:12.105Z,9.43
2019-05-23T05:00:44.413Z,9.20
2019-05-23T05:03:19.621Z,9.03
2019-05-23T05:05:51.656Z,9.28
2019-05-23T05:08:26.895Z,9.30
2019-05-23T05:10:59.344Z,9.50
2019-05-23T05:13:32.058Z,9.60
2019-05-23T05:16:06.825Z,9.18
2019-05-23T05:18:38.891Z,9.45
2019-05-23T05:21:11.361Z,8.90
2019-05-23T05:23:43.773Z,8.70
2019-05-23T05:26:23.409Z,9.10
2019-05-23T05:28:55.869Z,9.88
2019-05-23T05:31:27.908Z,9.50
2019-05-23T05:33:59.820Z,9.50
2019-05-23T05:36:32.139Z,9.15
2019-05-23T05:39:05.288Z,9.93
2019-05-23T05:41:38.075Z,9.00
2019-05-23T05:44:11.787Z,9.40
2019-05-23T05:46:43.941Z,9.08
2019-05-23T05:49:15.737Z,9.28
2019-05-23T05:51:47.489Z,9.88
2019-05-23T05:54:19.565Z,10.00
2019-05-23T05:56:51.538Z,9.38
2019-05-23T05:59:23.589Z,9.23
2019-05-23T06:01:56.656Z,9.03
2019-05-23T06:04:28.684Z,8.78
2019-05-23T06:07:16.830Z,9.80
2019-05-23T06:09:50.472Z,8.88
2019-05-23T06:12:23.577Z,8.98
2019-05-23T06:14:55.496Z,8.95
2019-05-23T06:17:28.140Z,10.03
2019-05-23T06:20:00.040Z,8.55
2019-05-23T06:22:33.526Z,9.75
2019-05-23T06:25:07.581Z,9.18
2019-05-23T06:27:43.081Z,10.85
2019-05-23T06:30:19.409Z,9.13
2019-05-23T06:32:51.400Z,9.35
2019-05-23T06:35:23.969Z,7.87
2019-05-23T06:37:56.745Z,8.38
2019-05-23T06:40:30.132Z,7.90
2019-05-23T06:43:02.311Z,8.65
2019-05-23T06:45:34.296Z,8.10
2019-05-23T06:48:08.407Z,8.63
2019-05-23T06:50:41.892Z,6.47
2019-05-23T06:53:14.870Z,7.17
2019-05-23T06:55:47.010Z,7.50
2019-05-23T06:58:18.866Z,7.20
2019-05-23T07:00:51.497Z,8.08
2019-05-23T07:03:40.541Z,8.28
2019-05-23T07:05:59.677Z,8.35
2019-05-23T07:08:33.494Z,7.08
2019-05-23T07:11:06.049Z,7.28
2019-05-23T07:13:39.493Z,6.92
2019-05-23T07:16:11.861Z,7.08
2019-05-23T07:18:45.584Z,6.78
2019-05-23T07:21:19.101Z,7.28
2019-05-23T07:23:50.880Z,7.47
2019-05-23T07:26:23.113Z,6.80
2019-05-23T07:28:55.801Z,7.17
2019-05-23T07:31:27.663Z,7.30
2019-05-23T07:34:02.401Z,7.58
2019-05-23T07:36:33.410Z,7.28
2019-05-23T07:39:11.333Z,5.95
2019-05-23T07:41:42.600Z,6.25
2019-05-23T07:44:15.550Z,6.12
2019-05-23T07:46:47.919Z,6.45
2019-05-23T07:49:20.938Z,6.80
2019-05-23T07:51:52.889Z,6.78
2019-05-23T07:54:33.165Z,6.35
2019-05-23T07:57:08.714Z,6.80
2019-05-23T07:59:40.654Z,6.58
2019-05-23T08:02:25.971Z,7.00
2019-05-23T08:04:58.902Z,6.58
2019-05-23T08:07:34.317Z,6.17
2019-05-23T08:10:10.056Z,6.70
2019-05-23T08:12:43.045Z,6.90
2019-05-23T08:15:15.617Z,6.30
2019-05-23T08:17:47.733Z,5.58
2019-05-23T08:20:20.077Z,6.58
2019-05-23T08:22:52.481Z,7.10
2019-05-23T08:25:24.312Z,6.60
2019-05-23T08:27:56.754Z,6.90
2019-05-23T08:30:29.563Z,6.15
2019-05-23T08:33:01.513Z,6.03
2019-05-23T08:35:33.732Z,6.70
2019-05-23T08:38:06.463Z,6.35
2019-05-23T08:40:40.143Z,5.70
2019-05-23T08:43:12.873Z,7.35
2019-05-23T08:45:45.194Z,6.47
2019-05-23T08:48:17.233Z,7.78
2019-05-23T08:50:51.420Z,7.62
2019-05-23T08:53:23.213Z,9.28
2019-05-23T08:55:55.861Z,10.25
2019-05-23T08:58:28.273Z,11.80
2019-05-23T09:01:00.229Z,12.07
2019-05-23T09:03:32.199Z,12.55
2019-05-23T09:06:04.984Z,12.60
2019-05-23T09:08:38.330Z,12.05
2019-05-23T09:11:11.589Z,12.70
2019-05-23T09:13:44.342Z,12.20
2019-05-23T09:16:16.261Z,11.80
2019-05-23T09:18:48.852Z,12.55
2019-05-23T09:21:20.873Z,12.58
2019-05-23T09:23:53.360Z,11.48
2019-05-23T09:26:25.415Z,11.08
2019-05-23T09:28:57.692Z,11.55
2019-05-23T09:31:30.311Z,11.53
2019-05-23T09:34:02.321Z,9.40
2019-05-23T09:36:34.883Z,10.20
2019-05-23T09:39:09.910Z,9.23
2019-05-23T09:41:42.192Z,11.20
2019-05-23T09:44:16.377Z,11.93
2019-05-23T09:46:48.260Z,11.48
2019-05-23T09:49:20.557Z,11.85
2019-05-23T09:51:55.404Z,12.03
2019-05-23T09:54:26.651Z,13.13
2019-05-23T09:56:58.685Z,11.03
2019-05-23T09:59:31.081Z,10.85
2019-05-23T10:02:02.990Z,12.55
2019-05-23T10:04:35.221Z,11.43
2019-05-23T10:07:07.078Z,13.40
2019-05-23T10:09:39.117Z,12.93
2019-05-23T10:12:10.936Z,13.22
2019-05-23T10:14:43.467Z,13.35
2019-05-23T10:17:15.998Z,12.70
2019-05-23T10:19:47.960Z,13.62
2019-05-23T10:22:19.794Z,12.75
2019-05-23T10:24:51.779Z,11.88
2019-05-23T10:27:23.659Z,11.25
2019-05-23T10:29:55.703Z,12.78
2019-05-23T10:32:27.613Z,10.80
2019-05-23T10:34:59.989Z,7.22
2019-05-23T10:37:31.870Z,12.65
2019-05-23T10:40:04.032Z,12.82
2019-05-23T10:42:36.786Z,13.65
2019-05-23T10:45:09.811Z,10.48
2019-05-23T10:47:41.643Z,9.40
2019-05-23T10:50:14.138Z,6.78
2019-05-23T10:52:46.006Z,9.78
2019-05-23T10:55:17.994Z,13.90
2019-05-23T10:57:49.860Z,13.88
2019-05-23T11:00:26.061Z,14.18
2019-05-23T11:02:58.049Z,14.53
2019-05-23T11:05:30.206Z,15.55
2019-05-23T11:08:02.946Z,14.65
2019-05-23T11:10:37.125Z,14.47
2019-05-23T11:13:09.489Z,13.85
2019-05-23T11:15:42.434Z,13.83
2019-05-23T11:18:14.793Z,11.05
2019-05-23T11:20:47.725Z,13.72
2019-05-23T11:23:25.835Z,12.78
2019-05-23T11:26:00.989Z,12.95
2019-05-23T11:28:34.808Z,14.93
2019-05-23T11:31:08.773Z,13.40
2019-05-23T11:33:40.825Z,11.85
2019-05-23T11:36:13.338Z,25.17
2019-05-23T11:38:45.337Z,12.60
2019-05-23T11:41:17.797Z,11.90
2019-05-23T11:43:49.771Z,11.48
2019-05-23T11:46:31.942Z,7.55
2019-05-23T11:49:05.417Z,11.38
2019-05-23T11:51:38.494Z,15.13
2019-05-23T11:54:11.709Z,9.70
2019-05-23T11:56:44.614Z,9.78
2019-05-23T11:59:18.284Z,7.87
2019-05-23T12:02:15.480Z,7.90
2019-05-23T12:04:47.522Z,8.60
2019-05-23T12:07:25.132Z,7.37
2019-05-23T12:09:57.011Z,9.95
2019-05-23T12:12:29.705Z,8.35
2019-05-23T12:15:01.757Z,6.87
2019-05-23T12:17:34.933Z,4.62
2019-05-23T12:20:08.510Z,5.70
2019-05-23T12:22:40.906Z,5.65
2019-05-23T12:25:23.289Z,14.43
2019-05-23T12:27:49.219Z,5.83
2019-05-23T12:30:21.413Z,7.15
2019-05-23T12:32:53.565Z,5.08
2019-05-23T12:35:25.903Z,6.87
2019-05-23T12:37:57.755Z,8.43
2019-05-23T12:40:29.998Z,9.53
2019-05-23T12:43:02.215Z,12.55
2019-05-23T12:45:34.021Z,11.50
2019-05-23T12:48:12.130Z,11.40
2019-05-23T12:50:46.030Z,10.90
2019-05-23T12:53:17.894Z,11.08
2019-05-23T12:55:49.806Z,12.15
2019-05-23T12:58:23.880Z,11.88
2019-05-23T13:00:57.156Z,13.30
2019-05-23T13:03:29.238Z,11.90
2019-05-23T13:06:01.192Z,13.22
2019-05-23T13:08:33.169Z,14.33
2019-05-23T13:11:05.562Z,15.70
2019-05-23T13:13:37.603Z,15.40
2019-05-23T13:16:11.086Z,17.52
2019-05-23T13:18:43.172Z,13.30
2019-05-23T13:21:15.255Z,17.73
2019-05-23T13:23:47.229Z,16.93
2019-05-23T13:26:19.101Z,17.87
2019-05-23T13:28:51.591Z,18.00
2019-05-23T13:31:23.631Z,18.05
2019-05-23T13:33:55.542Z,17.85
2019-05-23T13:36:27.891Z,19.12
2019-05-23T13:39:00.166Z,15.93
2019-05-23T13:41:32.129Z,19.17
2019-05-23T13:44:05.709Z,17.98
2019-05-23T13:46:39.925Z,17.77
2019-05-23T13:49:11.977Z,17.40
2019-05-23T13:51:45.141Z,18.55
2019-05-23T13:54:17.254Z,16.15
2019-05-23T13:56:49.077Z,17.85
2019-05-23T13:59:21.080Z,15.28
2019-05-23T14:01:53.688Z,18.85
2019-05-23T14:04:25.984Z,17.27
2019-05-23T14:06:58.665Z,17.70
2019-05-23T14:09:31.553Z,17.17
2019-05-23T14:14:37.312Z,17.25
2019-05-23T14:17:27.937Z,18.45
2019-05-23T14:19:59.892Z,17.70
2019-05-23T14:22:33.366Z,18.02
2019-05-23T14:25:06.958Z,16.50
2019-05-23T14:27:56.117Z,19.85
2019-05-23T14:30:42.499Z,18.45
2019-05-23T14:33:42.009Z,18.35
2019-05-23T14:36:35.755Z,16.97
2019-05-23T14:39:17.406Z,18.05
2019-05-23T14:41:55.509Z,18.37
2019-05-23T14:44:27.425Z,17.73
2019-05-23T14:47:21.505Z,18.17
2019-05-23T14:50:12.372Z,18.27
2019-05-23T14:52:45.113Z,18.35
2019-05-23T14:55:16.972Z,19.17
2019-05-23T14:57:49.295Z,18.05
2019-05-23T15:00:23.236Z,17.55
2019-05-23T15:02:55.170Z,19.02
2019-05-23T15:05:27.395Z,16.27
2019-05-23T15:07:59.513Z,18.05
2019-05-23T15:10:31.607Z,17.35
2019-05-23T15:13:03.635Z,17.82
2019-05-23T15:15:35.586Z,16.60
2019-05-23T15:18:08.103Z,18.52
2019-05-23T15:20:39.972Z,17.73
2019-05-23T15:23:12.213Z,25.00
2019-05-23T15:25:44.023Z,18.60
2019-05-23T15:28:16.139Z,21.65
2019-05-23T15:30:47.968Z,18.42
2019-05-23T15:33:19.968Z,19.55
2019-05-23T15:35:52.398Z,25.60
2019-05-23T15:38:24.359Z,18.30
2019-05-23T15:40:57.024Z,13.15
2019-05-23T15:43:29.024Z,16.77
2019-05-23T15:46:00.815Z,15.30
2019-05-23T15:48:32.992Z,15.35
2019-05-23T15:51:05.460Z,15.48
2019-05-23T15:53:59.271Z,14.68
2019-05-23T15:56:42.421Z,16.42
2019-05-23T15:59:27.822Z,15.68
2019-05-23T16:02:37.269Z,16.27
2019-05-23T16:05:13.623Z,16.00
2019-05-23T16:07:46.497Z,19.12
2019-05-23T16:10:18.491Z,19.65
2019-05-23T16:12:50.543Z,18.07
2019-05-23T16:15:23.661Z,16.42
2019-05-23T16:17:55.576Z,17.27
2019-05-23T16:20:28.068Z,16.32
2019-05-23T16:23:00.082Z,15.78
2019-05-23T16:25:32.329Z,16.32
2019-05-23T16:28:04.555Z,18.02
2019-05-23T16:30:37.161Z,16.05
2019-05-23T16:33:09.205Z,19.57
2019-05-23T16:35:41.836Z,17.50
2019-05-23T16:38:13.716Z,15.83
2019-05-23T16:40:46.067Z,17.20
2019-05-23T16:43:18.053Z,17.17
2019-05-23T16:45:50.286Z,16.80
2019-05-23T16:48:22.231Z,16.97
2019-05-23T16:50:54.525Z,16.17
2019-05-23T16:53:27.223Z,17.30
2019-05-23T16:56:05.230Z,17.12
2019-05-23T16:58:54.834Z,17.30
2019-05-23T17:01:56.029Z,17.07
2019-05-23T17:04:34.485Z,18.55
2019-05-23T17:07:23.790Z,17.73
2019-05-23T17:10:08.960Z,19.37
2019-05-23T17:13:11.298Z,18.98
2019-05-23T17:16:11.005Z,18.05
2019-05-23T17:19:04.964Z,18.42
2019-05-23T17:22:03.644Z,19.37
2019-05-23T17:24:47.900Z,18.92
2019-05-23T17:27:37.170Z,17.85
2019-05-23T17:30:19.376Z,19.55
2019-05-23T17:32:51.588Z,19.40
2019-05-23T17:35:24.128Z,16.65
2019-05-23T17:37:56.076Z,18.27
2019-05-23T17:40:29.223Z,18.73
2019-05-23T17:43:01.106Z,18.57
2019-05-23T17:45:33.528Z,17.07
2019-05-23T17:48:05.749Z,19.02
2019-05-23T17:50:37.703Z,17.67
2019-05-23T17:53:09.495Z,17.77
2019-05-23T17:55:41.686Z,16.93
2019-05-23T17:58:13.686Z,15.85
2019-05-23T18:00:47.219Z,16.25
2019-05-23T18:03:19.830Z,14.45
2019-05-23T18:05:52.115Z,14.93
2019-05-23T18:08:24.868Z,14.18
2019-05-23T18:10:58.250Z,15.32
2019-05-23T18:13:30.722Z,16.25
2019-05-23T18:16:05.545Z,16.25
2019-05-23T18:18:37.462Z,15.50
2019-05-23T18:21:09.273Z,14.80
2019-05-23T18:23:41.324Z,15.78
2019-05-23T18:26:13.151Z,14.28
2019-05-23T18:28:45.226Z,15.55
2019-05-23T18:31:24.059Z,17.60
2019-05-23T18:33:57.125Z,16.80
2019-05-23T18:36:30.012Z,17.15
2019-05-23T18:39:02.212Z,16.75
2019-05-23T18:41:34.860Z,16.65
2019-05-23T18:44:09.615Z,16.80
2019-05-23T18:46:44.920Z,17.00
2019-05-23T18:49:17.412Z,17.95
2019-05-23T18:51:49.576Z,17.48
2019-05-23T18:54:21.953Z,17.25
2019-05-23T18:56:57.378Z,17.05
2019-05-23T18:59:29.945Z,18.10
2019-05-23T19:02:02.243Z,19.20
2019-05-23T19:04:34.886Z,18.80
2019-05-23T19:07:08.216Z,18.07
2019-05-23T19:09:41.331Z,18.50
2019-05-23T19:12:13.800Z,18.32
2019-05-23T19:14:46.987Z,18.20
2019-05-23T19:17:19.425Z,20.50
2019-05-23T19:19:51.568Z,17.40
2019-05-23T19:22:24.249Z,17.17
2019-05-23T19:24:56.508Z,17.05
2019-05-23T19:27:29.150Z,17.62
2019-05-23T19:30:01.187Z,16.60
2019-05-23T19:32:34.774Z,16.70
2019-05-23T19:35:08.170Z,17.25
2019-05-23T19:37:42.019Z,17.53
2019-05-23T19:40:14.765Z,17.00
2019-05-23T19:42:46.917Z,15.63
2019-05-23T19:45:19.025Z,16.60
2019-05-23T19:47:51.927Z,16.37
2019-05-23T19:50:24.452Z,15.30
2019-05-23T19:52:56.911Z,15.87
2019-05-23T19:55:32.329Z,15.23
2019-05-23T19:58:04.484Z,15.87
2019-05-23T20:00:36.937Z,15.13
2019-05-23T20:03:09.443Z,14.95
2019-05-23T20:05:41.929Z,15.58
2019-05-23T20:08:14.067Z,14.98
2019-05-23T20:10:46.490Z,15.15
2019-05-23T20:13:19.026Z,15.88
2019-05-23T20:15:51.305Z,15.72
2019-05-23T20:18:24.306Z,14.65
2019-05-23T20:20:56.222Z,16.00
2019-05-23T20:23:28.168Z,14.43
2019-05-23T20:26:00.492Z,14.93
2019-05-23T20:28:32.934Z,14.80
2019-05-23T20:31:06.449Z,13.30
2019-05-23T20:33:38.295Z,15.17
2019-05-23T20:36:13.127Z,13.90
2019-05-23T20:38:46.447Z,15.17
2019-05-23T20:41:19.428Z,14.40
2019-05-23T20:43:52.030Z,13.95
2019-05-23T20:46:24.542Z,13.03
2019-05-23T20:48:56.756Z,14.33
2019-05-23T20:51:28.929Z,13.65
2019-05-23T20:54:00.868Z,13.78
2019-05-23T20:56:32.837Z,14.47
2019-05-23T20:59:05.955Z,13.90
2019-05-23T21:01:41.111Z,14.43
2019-05-23T21:04:13.289Z,13.08
2019-05-23T21:06:45.211Z,12.45
2019-05-23T21:09:17.269Z,12.85
2019-05-23T21:11:49.090Z,11.45
2019-05-23T21:14:21.213Z,12.93
2019-05-23T21:16:53.131Z,11.20
2019-05-23T21:19:25.175Z,11.63
2019-05-23T21:21:57.192Z,11.97
2019-05-23T21:24:30.965Z,10.75
2019-05-23T21:27:03.078Z,10.90
2019-05-23T21:29:34.946Z,10.77
2019-05-23T21:32:07.169Z,11.30
2019-05-23T21:34:39.214Z,9.37
2019-05-23T21:37:11.271Z,9.90
2019-05-23T21:39:43.502Z,9.98
2019-05-23T21:42:15.776Z,11.00
2019-05-23T21:44:47.958Z,9.68
2019-05-23T21:47:19.866Z,10.10
2019-05-23T21:49:51.987Z,10.97
2019-05-23T21:52:23.913Z,10.57
2019-05-23T21:54:56.002Z,10.53
2019-05-23T21:57:27.964Z,9.07
2019-05-23T21:59:59.779Z,9.17
2019-05-23T22:02:35.286Z,9.10
2019-05-23T22:05:13.985Z,9.47
2019-05-23T22:07:46.708Z,9.07
2019-05-23T22:10:19.193Z,9.43
2019-05-23T22:13:03.350Z,9.87
2019-05-23T22:15:38.947Z,9.50
2019-05-23T22:18:10.776Z,10.10
2019-05-23T22:20:43.196Z,9.83
2019-05-23T22:23:15.513Z,8.97
2019-05-23T22:25:47.629Z,8.97
2019-05-23T22:28:20.091Z,8.70
2019-05-23T22:30:53.335Z,9.30
2019-05-23T22:33:27.484Z,9.97
2019-05-23T22:36:00.603Z,8.33
2019-05-23T22:38:32.507Z,7.77
2019-05-23T22:41:04.401Z,8.80
2019-05-23T22:43:37.750Z,9.13
2019-05-23T22:46:11.132Z,8.77
2019-05-23T22:48:43.100Z,8.10
2019-05-23T22:51:15.252Z,8.30
2019-05-23T22:53:47.094Z,8.80
2019-05-23T22:56:19.304Z,7.93
2019-05-23T22:58:51.288Z,7.93
2019-05-23T23:01:24.888Z,8.37
2019-05-23T23:03:56.716Z,8.20
2019-05-23T23:06:29.294Z,7.27
2019-05-23T23:09:01.150Z,8.57
2019-05-23T23:11:33.212Z,6.97
2019-05-23T23:14:06.107Z,7.60
2019-05-23T23:16:37.993Z,7.27
2019-05-23T23:19:09.966Z,7.70
2019-05-23T23:21:41.982Z,7.20
2019-05-23T23:24:13.781Z,7.90
2019-05-23T23:26:45.623Z,7.67
2019-05-23T23:29:17.747Z,6.93
2019-05-23T23:31:49.679Z,6.03
2019-05-23T23:34:21.741Z,6.47
2019-05-23T23:36:53.634Z,6.87
2019-05-23T23:39:25.613Z,6.20
2019-05-23T23:41:57.698Z,6.43
2019-05-23T23:44:34.492Z,5.53
2019-05-23T23:47:25.472Z,6.20
2019-05-23T23:50:14.655Z,6.10
2019-05-23T23:53:04.525Z,5.80
2019-05-23T23:55:53.803Z,5.20
2019-05-23T23:58:25.864Z,5.03
